CYYG

Charlottetown Airport

Charlottetown, Prince Edward Island, Canada
TAF AMD CYYG 192110Z 1921/2006 15008KT P6SM OVC030 TEMPO 1921/2006 2SM -SN BKN007 OVC015 PROB30 2002/2005 3SM -FZRA BR OVC007 RMK NXT FCST BY 200000Z
Issued Valid From Valid To
Nov-19 @ 21:10 UTC
(55 minutes ago)
Nov-19 @ 21:00 UTC
(an hour ago)
Nov-20 @ 06:00 UTC
(in 8 hours)
Nov-19 @ 21:00 to Nov-20 @ 06:00
TAF AMD CYYG 192110Z 1921/2006 15008KT P6SM OVC030
Wind Visibility Clouds
150° at 8 knots Greater than 6 miles
  • Overcast at 3,000' AGL
Temporary Nov-19 @ 21:00 to Nov-20 @ 06:00
TEMPO 1921/2006 2SM -SN BKN007 OVC015
Visibility Clouds Conditions
2 miles
  • Broken at 700' AGL
  • Overcast at 1,500' AGL
  • Light Snow
Probable  (Probability 30%) Nov-20 @ 02:00 to Nov-20 @ 05:00
PROB30 2002/2005 3SM -FZRA BR OVC007 RMK NXT FCST BY 200000Z
Visibility Clouds Conditions
3 miles
  • Overcast at 700' AGL
  • Light Freezing
  • Light Rain
  • Mist
TAF AMD CYYG 192110Z 1921/2006 15008KT P6SM OVC030 TEMPO 1921/2006 2SM -SN BKN007 OVC015 PROB30 2002/2005 3SM -FZRA BR OVC007 RMK NXT FCST BY 200000Z
Issued Nov-19 @ 21:10 UTC
(55 minutes ago)
Valid From Nov-19 @ 21:00 UTC
(an hour ago)
Valid To Nov-20 @ 06:00 UTC
(in 8 hours)
Nov-19 @ 21:00 - Nov-20 @ 06:00
Wind Visibility
150° at 8 knots Greater than 6 miles
Clouds
  • Overcast at 3,000' AGL
Temporary Nov-19 @ 21:00 - Nov-20 @ 06:00
Clouds
  • Broken at 700' AGL
  • Overcast at 1,500' AGL
Conditions
  • Light Snow
Probability 30% Probable Nov-20 @ 02:00 - Nov-20 @ 05:00
Clouds
  • Overcast at 700' AGL
Conditions
  • Light Freezing
  • Light Rain
  • Mist